createdAt,value
2022-08-06T00:01:05.063Z,1.75
2022-08-06T00:03:31.475Z,1.70
2022-08-06T00:05:58.572Z,1.73
2022-08-06T00:08:26.014Z,1.80
2022-08-06T00:10:53.007Z,1.80
2022-08-06T00:13:19.859Z,1.75
2022-08-06T00:16:09.634Z,1.75
2022-08-06T00:18:33.244Z,2.25
2022-08-06T00:20:59.515Z,1.83
2022-08-06T00:23:26.860Z,1.80
2022-08-06T00:26:01.280Z,2.10
2022-08-06T00:28:31.878Z,1.95
2022-08-06T00:30:59.378Z,2.30
2022-08-06T00:33:43.567Z,1.98
2022-08-06T00:36:13.790Z,1.85
2022-08-06T00:38:40.092Z,2.05
2022-08-06T00:41:06.529Z,1.85
2022-08-06T00:43:40.302Z,2.00
2022-08-06T00:46:07.002Z,2.28
2022-08-06T00:48:53.287Z,1.80
2022-08-06T00:51:21.369Z,1.80
2022-08-06T00:53:48.322Z,1.80
2022-08-06T00:56:14.852Z,2.10
2022-08-06T00:58:41.847Z,1.70
2022-08-06T01:01:17.688Z,1.73
2022-08-06T01:03:51.990Z,2.13
2022-08-06T01:06:55.571Z,2.25
2022-08-06T01:09:06.029Z,1.70
2022-08-06T01:11:34.664Z,2.47
2022-08-06T01:14:03.998Z,2.30
2022-08-06T01:16:45.188Z,2.75
2022-08-06T01:21:20.620Z,2.60
2022-08-06T01:22:36.031Z,2.40
2022-08-06T01:25:14.157Z,3.75
2022-08-06T01:27:44.942Z,2.47
2022-08-06T01:30:14.003Z,2.50
2022-08-06T01:32:54.917Z,2.50
2022-08-06T01:35:47.003Z,2.20
2022-08-06T01:38:22.055Z,2.53
2022-08-06T01:40:51.604Z,2.53
2022-08-06T01:44:04.833Z,2.40
2022-08-06T01:46:08.780Z,2.53
2022-08-06T01:48:37.957Z,2.88
2022-08-06T01:51:05.141Z,3.05
2022-08-06T01:54:05.724Z,2.95
2022-08-06T01:56:28.767Z,2.97
2022-08-06T01:58:58.111Z,2.70
2022-08-06T02:01:25.067Z,2.45
2022-08-06T02:03:59.388Z,2.67
2022-08-06T02:06:38.357Z,2.00
2022-08-06T02:09:22.232Z,2.33
2022-08-06T02:12:03.950Z,3.17
2022-08-06T02:14:33.517Z,2.47
2022-08-06T02:17:13.377Z,2.67
2022-08-06T02:19:47.871Z,2.53
2022-08-06T02:22:27.776Z,2.58
2022-08-06T02:24:58.050Z,3.13
2022-08-06T02:27:43.925Z,3.20
2022-08-06T02:30:16.561Z,2.63
2022-08-06T02:32:45.484Z,2.70
2022-08-06T02:35:12.784Z,3.00
2022-08-06T02:38:01.438Z,2.83
2022-08-06T02:40:33.806Z,2.25
2022-08-06T02:43:20.550Z,3.13
2022-08-06T02:45:58.306Z,3.20
2022-08-06T02:48:32.649Z,2.88
2022-08-06T02:51:00.230Z,3.10
2022-08-06T02:53:37.496Z,3.22
2022-08-06T02:56:20.241Z,2.88
2022-08-06T02:58:58.338Z,3.13
2022-08-06T03:01:39.911Z,2.97
2022-08-06T03:06:37.177Z,3.72
2022-08-06T03:09:05.627Z,2.95
2022-08-06T03:11:34.418Z,3.25
2022-08-06T03:14:13.256Z,3.65
2022-08-06T03:16:51.570Z,3.05
2022-08-06T03:19:57.443Z,2.65
2022-08-06T03:22:06.184Z,3.45
2022-08-06T03:24:38.653Z,3.17
2022-08-06T03:27:07.531Z,2.92
2022-08-06T03:29:35.103Z,3.47
2022-08-06T03:32:24.307Z,3.60
2022-08-06T03:34:49.158Z,4.35
2022-08-06T03:37:19.811Z,3.30
2022-08-06T03:39:53.769Z,3.50
2022-08-06T03:42:20.494Z,3.40
2022-08-06T03:44:47.124Z,3.55
2022-08-06T03:47:31.080Z,3.92
2022-08-06T03:50:08.533Z,3.65
2022-08-06T03:52:38.994Z,3.40
2022-08-06T03:55:09.248Z,3.42
2022-08-06T03:57:47.474Z,3.47
2022-08-06T04:02:50.207Z,3.95
2022-08-06T04:05:23.109Z,3.80
2022-08-06T04:07:54.203Z,4.05
2022-08-06T04:10:22.561Z,3.63
2022-08-06T04:13:35.549Z,4.00
2022-08-06T04:15:46.825Z,4.25
2022-08-06T04:18:15.971Z,4.22
2022-08-06T04:20:45.099Z,4.25
2022-08-06T04:23:13.606Z,4.00
2022-08-06T04:25:48.546Z,4.40
2022-08-06T04:28:15.533Z,4.15
2022-08-06T04:30:47.264Z,4.15
2022-08-06T04:33:19.734Z,4.05
2022-08-06T04:36:04.659Z,3.70
2022-08-06T04:38:33.995Z,4.05
2022-08-06T04:41:03.213Z,3.78
2022-08-06T04:43:38.534Z,3.92
2022-08-06T04:46:20.181Z,4.38
2022-08-06T04:48:48.464Z,4.10
2022-08-06T04:51:17.506Z,3.35
2022-08-06T04:54:04.784Z,3.47
2022-08-06T04:56:37.050Z,3.28
2022-08-06T04:59:04.796Z,3.25
2022-08-06T05:01:40.970Z,2.90
2022-08-06T05:04:22.839Z,2.20
2022-08-06T05:06:55.641Z,2.17
2022-08-06T05:09:38.196Z,2.25
2022-08-06T05:12:30.024Z,2.15
2022-08-06T05:15:01.409Z,2.17
2022-08-06T05:17:34.817Z,2.38
2022-08-06T05:20:27.547Z,2.20
2022-08-06T05:23:01.064Z,2.42
2022-08-06T05:25:29.803Z,2.70
2022-08-06T05:28:09.684Z,2.95
2022-08-06T05:30:46.966Z,3.22
2022-08-06T05:33:22.827Z,3.35
2022-08-06T05:36:01.756Z,3.70
2022-08-06T05:38:36.801Z,4.25
2022-08-06T05:41:08.055Z,3.45
2022-08-06T05:44:00.040Z,3.88
2022-08-06T05:46:24.856Z,3.63
2022-08-06T05:49:00.708Z,4.03
2022-08-06T05:51:45.088Z,3.45
2022-08-06T05:54:19.741Z,3.38
2022-08-06T05:56:47.572Z,3.67
2022-08-06T05:59:37.490Z,3.03
2022-08-06T06:02:10.222Z,3.03
2022-08-06T06:04:36.680Z,2.60
2022-08-06T06:07:08.559Z,2.95
2022-08-06T06:09:56.953Z,2.88
2022-08-06T06:12:31.802Z,3.17
2022-08-06T06:14:59.542Z,2.65
2022-08-06T06:17:48.354Z,2.63
2022-08-06T06:20:15.777Z,3.25
2022-08-06T06:22:46.852Z,3.40
2022-08-06T06:25:36.764Z,2.58
2022-08-06T06:28:12.866Z,2.78
2022-08-06T06:31:02.760Z,2.83
2022-08-06T06:33:41.431Z,2.78
2022-08-06T06:36:36.737Z,2.60
2022-08-06T06:39:03.506Z,2.83
2022-08-06T06:41:38.020Z,2.50
2022-08-06T06:44:17.243Z,2.80
2022-08-06T06:46:50.716Z,2.22
2022-08-06T06:50:00.449Z,2.70
2022-08-06T06:52:11.497Z,2.92
2022-08-06T06:55:00.364Z,2.70
2022-08-06T06:57:42.867Z,2.47
2022-08-06T07:00:45.525Z,2.80
2022-08-06T07:03:00.735Z,2.33
2022-08-06T07:06:04.034Z,2.45
2022-08-06T07:08:15.934Z,3.22
2022-08-06T07:10:57.650Z,2.92
2022-08-06T07:13:46.999Z,2.90
2022-08-06T07:16:34.983Z,3.38
2022-08-06T07:19:01.233Z,2.97
2022-08-06T07:21:27.989Z,2.60
2022-08-06T07:24:06.497Z,2.97
2022-08-06T07:26:50.902Z,3.08
2022-08-06T07:29:48.648Z,2.60
2022-08-06T07:32:05.747Z,2.90
2022-08-06T07:34:33.346Z,2.40
2022-08-06T07:37:00.770Z,2.90
2022-08-06T07:39:35.171Z,2.75
2022-08-06T07:42:11.379Z,3.23
2022-08-06T07:44:56.124Z,2.97
2022-08-06T07:47:37.098Z,4.07
2022-08-06T07:50:14.133Z,3.50
2022-08-06T07:52:42.530Z,3.85
2022-08-06T07:55:13.053Z,3.50
2022-08-06T07:57:55.979Z,3.40
2022-08-06T08:00:25.290Z,2.50
2022-08-06T08:03:43.169Z,2.65
2022-08-06T08:06:18.572Z,3.10
2022-08-06T08:08:48.572Z,3.10
2022-08-06T08:11:16.561Z,2.47
2022-08-06T08:13:44.341Z,1.77
2022-08-06T08:16:20.054Z,1.90
2022-08-06T08:18:55.366Z,1.70
2022-08-06T08:21:22.537Z,2.17
2022-08-06T08:23:50.264Z,2.03
2022-08-06T08:26:25.171Z,2.03
2022-08-06T08:28:51.844Z,2.72
2022-08-06T08:31:25.502Z,2.60
2022-08-06T08:36:22.040Z,2.70
2022-08-06T08:39:00.242Z,2.10
2022-08-06T08:41:43.026Z,2.58
2022-08-06T08:44:15.645Z,2.47
2022-08-06T08:46:58.107Z,1.92
2022-08-06T08:49:48.169Z,2.00
2022-08-06T08:52:18.120Z,1.65
2022-08-06T08:54:47.152Z,1.70
2022-08-06T08:59:02.534Z,2.33
2022-08-06T09:00:04.065Z,1.77
2022-08-06T09:02:40.171Z,1.50
2022-08-06T09:05:15.545Z,0.95
2022-08-06T09:07:42.639Z,1.42
2022-08-06T09:10:12.336Z,1.20
2022-08-06T09:12:44.874Z,1.42
2022-08-06T09:15:12.623Z,1.60
2022-08-06T09:18:25.055Z,1.33
2022-08-06T09:20:27.772Z,1.05
2022-08-06T09:22:54.084Z,1.20
2022-08-06T09:25:50.092Z,1.30
2022-08-06T09:28:40.423Z,1.02
2022-08-06T09:31:10.283Z,0.88
2022-08-06T09:34:30.195Z,0.90
2022-08-06T09:36:45.697Z,1.10
2022-08-06T09:39:12.550Z,0.80
2022-08-06T09:41:48.894Z,0.70
2022-08-06T09:44:36.976Z,0.77
2022-08-06T09:47:02.010Z,1.02
2022-08-06T09:49:49.213Z,0.70
2022-08-06T09:52:26.766Z,0.60
2022-08-06T09:54:54.434Z,0.90
2022-08-06T09:57:35.707Z,0.80
2022-08-06T10:00:03.577Z,0.70
2022-08-06T10:02:33.495Z,0.60
2022-08-06T10:05:17.600Z,0.52
2022-08-06T10:07:46.744Z,0.63
2022-08-06T10:10:14.272Z,0.60
2022-08-06T10:13:10.942Z,0.75
2022-08-06T10:15:58.095Z,0.63
2022-08-06T10:18:55.332Z,0.70
2022-08-06T10:21:23.544Z,0.50
2022-08-06T10:23:55.642Z,0.85
2022-08-06T10:26:25.330Z,0.75
2022-08-06T10:28:52.428Z,0.80
2022-08-06T10:31:21.716Z,0.75
2022-08-06T10:33:56.271Z,0.90
2022-08-06T10:38:52.832Z,0.80
2022-08-06T10:41:27.735Z,1.00
2022-08-06T10:44:07.060Z,0.60
2022-08-06T10:46:34.183Z,0.75
2022-08-06T10:50:24.185Z,0.60
2022-08-06T10:51:55.971Z,0.60
2022-08-06T10:54:24.788Z,0.70
2022-08-06T10:56:51.389Z,0.90
2022-08-06T10:59:19.283Z,0.95
2022-08-06T11:02:04.680Z,0.75
2022-08-06T11:04:31.485Z,0.73
2022-08-06T11:06:57.842Z,0.70
2022-08-06T11:10:01.782Z,0.80
2022-08-06T11:12:51.117Z,0.73
2022-08-06T11:15:18.362Z,0.80
2022-08-06T11:17:51.224Z,0.90
2022-08-06T11:20:32.814Z,1.00
2022-08-06T11:23:04.330Z,0.73
2022-08-06T11:25:38.334Z,0.70
2022-08-06T11:28:06.305Z,0.70
2022-08-06T11:30:52.012Z,0.90
2022-08-06T11:33:33.439Z,0.60
2022-08-06T11:36:04.361Z,0.47
2022-08-06T11:38:51.288Z,0.73
2022-08-06T11:41:44.929Z,0.65
2022-08-06T11:44:08.995Z,0.60
2022-08-06T11:46:47.847Z,0.60
2022-08-06T11:49:20.210Z,0.60
2022-08-06T11:51:53.030Z,0.50
2022-08-06T11:54:38.602Z,0.70
2022-08-06T11:57:12.953Z,1.00
2022-08-06T11:59:45.491Z,0.95
2022-08-06T12:02:13.922Z,0.70
2022-08-06T12:04:44.018Z,0.80
2022-08-06T12:07:13.077Z,0.80
2022-08-06T12:09:43.274Z,0.95
2022-08-06T12:12:24.482Z,0.70
2022-08-06T12:14:55.062Z,0.70
2022-08-06T12:17:44.991Z,0.60
2022-08-06T12:20:11.260Z,0.77
2022-08-06T12:22:53.706Z,0.57
2022-08-06T12:25:20.426Z,0.68
2022-08-06T12:27:50.725Z,0.98
2022-08-06T12:30:37.642Z,0.70
2022-08-06T12:33:04.765Z,0.73
2022-08-06T12:35:48.690Z,0.80
2022-08-06T12:38:15.158Z,0.60
2022-08-06T12:40:51.912Z,0.88
2022-08-06T12:43:29.498Z,1.02
2022-08-06T12:46:11.384Z,0.55
2022-08-06T12:48:48.312Z,0.57
2022-08-06T12:51:15.741Z,0.90
2022-08-06T12:53:48.534Z,0.60
2022-08-06T12:56:29.447Z,0.77
2022-08-06T12:58:59.185Z,0.63
2022-08-06T13:02:09.120Z,1.75
2022-08-06T13:04:14.328Z,0.60
2022-08-06T13:06:43.829Z,0.70
2022-08-06T13:09:10.353Z,0.80
2022-08-06T13:11:37.450Z,0.70
2022-08-06T13:14:17.135Z,0.68
2022-08-06T13:16:54.639Z,0.70
2022-08-06T13:19:21.579Z,0.50
2022-08-06T13:22:00.802Z,0.52
2022-08-06T13:24:31.046Z,0.63
2022-08-06T13:30:33.447Z,0.65
2022-08-06T13:32:27.276Z,0.50
2022-08-06T13:35:01.353Z,0.60
2022-08-06T13:37:56.231Z,0.52
2022-08-06T13:40:41.826Z,0.70
2022-08-06T13:43:39.254Z,0.47
2022-08-06T13:46:06.448Z,0.50
2022-08-06T13:48:34.424Z,0.63
2022-08-06T13:51:04.477Z,0.77
2022-08-06T13:53:40.762Z,0.60
2022-08-06T13:56:21.744Z,0.50
2022-08-06T13:58:56.925Z,0.70
2022-08-06T14:01:23.219Z,0.60
2022-08-06T14:03:49.592Z,0.70
2022-08-06T14:06:15.875Z,0.65
2022-08-06T14:08:44.304Z,0.55
2022-08-06T14:11:13.934Z,0.65
2022-08-06T14:13:42.030Z,0.88
2022-08-06T14:16:08.590Z,0.52
2022-08-06T14:18:39.587Z,0.60
2022-08-06T14:21:14.949Z,0.70
2022-08-06T14:24:00.955Z,0.68
2022-08-06T14:26:27.832Z,0.55
2022-08-06T14:30:19.857Z,0.60
2022-08-06T14:31:53.730Z,0.38
2022-08-06T14:34:35.892Z,0.57
2022-08-06T14:37:13.984Z,0.50
2022-08-06T14:39:58.164Z,0.50
2022-08-06T14:42:47.527Z,0.75
2022-08-06T14:45:14.937Z,0.70
2022-08-06T14:47:58.303Z,0.55
2022-08-06T14:50:37.610Z,1.05
2022-08-06T14:53:07.510Z,0.40
2022-08-06T14:55:34.352Z,0.70
2022-08-06T14:58:04.623Z,0.73
2022-08-06T15:00:37.866Z,0.60
2022-08-06T15:03:07.774Z,1.15
2022-08-06T15:05:41.499Z,0.52
2022-08-06T15:08:25.902Z,0.47
2022-08-06T15:10:52.199Z,0.60
2022-08-06T15:13:19.616Z,0.50
2022-08-06T15:15:47.916Z,0.50
2022-08-06T15:18:21.272Z,0.50
2022-08-06T15:21:04.082Z,0.50
2022-08-06T15:23:54.047Z,0.50
2022-08-06T15:26:41.694Z,0.80
2022-08-06T15:29:04.548Z,0.40
2022-08-06T15:31:37.180Z,0.47
2022-08-06T15:34:07.468Z,0.55
2022-08-06T15:36:34.716Z,0.50
2022-08-06T15:39:02.712Z,0.40
2022-08-06T15:41:36.287Z,0.85
2022-08-06T15:44:10.043Z,0.50
2022-08-06T15:46:36.298Z,0.77
2022-08-06T15:49:03.715Z,0.57
2022-08-06T15:51:31.605Z,1.33
2022-08-06T15:53:58.940Z,0.50
2022-08-06T15:56:33.657Z,0.73
2022-08-06T15:59:12.281Z,0.60
2022-08-06T16:01:52.188Z,0.60
2022-08-06T16:04:25.786Z,0.40
2022-08-06T16:06:54.785Z,0.70
2022-08-06T16:09:27.058Z,0.40
2022-08-06T16:11:54.088Z,0.68
2022-08-06T16:14:33.462Z,0.75
2022-08-06T16:17:09.527Z,0.60
2022-08-06T16:19:49.535Z,0.47
2022-08-06T16:22:17.983Z,0.40
2022-08-06T16:24:44.506Z,0.60
2022-08-06T16:27:11.545Z,0.60
2022-08-06T16:29:41.060Z,0.80
2022-08-06T16:32:07.921Z,1.48
2022-08-06T16:34:36.532Z,0.77
2022-08-06T16:37:37.727Z,0.90
2022-08-06T16:40:00.271Z,0.47
2022-08-06T16:42:27.327Z,0.65
2022-08-06T16:45:01.020Z,0.98
2022-08-06T16:48:04.166Z,0.80
2022-08-06T16:50:19.196Z,1.00
2022-08-06T16:54:13.119Z,0.68
2022-08-06T16:55:38.082Z,1.05
2022-08-06T16:58:08.833Z,0.80
2022-08-06T17:00:59.645Z,1.50
2022-08-06T17:03:45.846Z,0.90
2022-08-06T17:06:17.723Z,1.10
2022-08-06T17:08:53.692Z,0.90
2022-08-06T17:11:46.108Z,1.02
2022-08-06T17:14:13.214Z,1.05
2022-08-06T17:16:40.839Z,1.35
2022-08-06T17:19:07.259Z,1.10
2022-08-06T17:21:53.063Z,0.85
2022-08-06T17:24:37.453Z,1.27
2022-08-06T17:27:10.204Z,0.80
2022-08-06T17:29:46.900Z,1.60
2022-08-06T17:32:30.417Z,3.03
2022-08-06T17:34:59.663Z,1.20
2022-08-06T17:37:26.200Z,1.00
2022-08-06T17:40:19.126Z,0.77
2022-08-06T17:42:54.365Z,0.90
2022-08-06T17:45:22.016Z,0.70
2022-08-06T17:47:51.201Z,0.95
2022-08-06T17:50:18.555Z,0.85
2022-08-06T17:52:47.529Z,0.85
2022-08-06T17:55:14.203Z,0.90
2022-08-06T17:58:03.391Z,0.80
2022-08-06T18:00:31.584Z,1.00
2022-08-06T18:03:01.486Z,0.90
2022-08-06T18:05:36.363Z,0.70
2022-08-06T18:08:15.069Z,0.80
2022-08-06T18:10:48.390Z,0.90
2022-08-06T18:13:14.656Z,0.65
2022-08-06T18:15:47.250Z,1.02
2022-08-06T18:18:19.783Z,0.80
2022-08-06T18:20:46.503Z,0.80
2022-08-06T18:23:20.504Z,0.90
2022-08-06T18:25:56.243Z,0.80
2022-08-06T18:28:36.210Z,1.02
2022-08-06T18:31:09.290Z,0.75
2022-08-06T18:33:36.937Z,1.08
2022-08-06T18:36:06.297Z,0.90
2022-08-06T18:38:33.279Z,1.00
2022-08-06T18:41:05.828Z,0.57
2022-08-06T18:43:55.326Z,1.10
2022-08-06T18:47:02.502Z,1.13
2022-08-06T18:49:16.130Z,0.75
2022-08-06T18:51:43.069Z,0.80
2022-08-06T18:54:21.362Z,1.27
2022-08-06T18:56:49.686Z,0.80
2022-08-06T18:59:23.810Z,0.98
2022-08-06T19:01:55.971Z,0.65
2022-08-06T19:04:27.220Z,1.77
2022-08-06T19:06:56.477Z,1.00
2022-08-06T19:09:26.345Z,1.17
2022-08-06T19:12:01.141Z,1.00
2022-08-06T19:14:27.523Z,0.88
2022-08-06T19:16:53.768Z,0.77
2022-08-06T19:19:46.298Z,1.05
2022-08-06T19:22:07.281Z,0.70
2022-08-06T19:24:36.431Z,1.00
2022-08-06T19:27:03.038Z,0.52
2022-08-06T19:29:58.034Z,1.00
2022-08-06T19:32:28.040Z,0.70
2022-08-06T19:34:55.868Z,1.10
2022-08-06T19:37:59.475Z,0.95
2022-08-06T19:40:27.390Z,1.00
2022-08-06T19:44:23.444Z,1.23
2022-08-06T19:46:29.806Z,0.70
2022-08-06T19:48:28.929Z,1.10
2022-08-06T19:50:56.076Z,0.80
2022-08-06T19:53:23.522Z,1.20
2022-08-06T19:56:06.357Z,1.20
2022-08-06T19:58:35.734Z,1.10
2022-08-06T20:01:32.053Z,1.20
2022-08-06T20:03:55.865Z,1.10
2022-08-06T20:06:54.477Z,1.00
2022-08-06T20:09:26.607Z,1.10
2022-08-06T20:12:04.399Z,1.13
2022-08-06T20:14:33.527Z,1.40
2022-08-06T20:17:00.256Z,1.25
2022-08-06T20:20:06.425Z,1.33
2022-08-06T20:22:13.906Z,1.27
2022-08-06T20:24:41.647Z,1.20
2022-08-06T20:27:08.182Z,1.17
2022-08-06T20:30:05.904Z,1.55
2022-08-06T20:32:22.373Z,1.50
2022-08-06T20:34:48.784Z,1.15
2022-08-06T20:37:15.773Z,1.25
2022-08-06T20:39:42.063Z,1.00
2022-08-06T20:42:12.560Z,0.98
2022-08-06T20:44:40.718Z,1.10
2022-08-06T20:47:46.363Z,1.20
2022-08-06T20:50:04.671Z,1.00
2022-08-06T20:52:31.642Z,0.90
2022-08-06T20:55:00.446Z,1.17
2022-08-06T20:57:28.487Z,0.90
2022-08-06T20:59:56.719Z,1.02
2022-08-06T21:02:25.731Z,1.30
2022-08-06T21:05:16.363Z,1.10
2022-08-06T21:07:56.834Z,1.20
2022-08-06T21:10:25.035Z,1.50
2022-08-06T21:13:01.560Z,1.35
2022-08-06T21:15:54.271Z,1.23
2022-08-06T21:18:21.481Z,1.10
2022-08-06T21:20:50.826Z,1.30
2022-08-06T21:23:17.766Z,1.00
2022-08-06T21:25:47.355Z,1.20
2022-08-06T21:28:17.175Z,1.25
2022-08-06T21:30:43.562Z,1.60
2022-08-06T21:33:09.809Z,1.17
2022-08-06T21:35:36.115Z,1.25
2022-08-06T21:38:07.052Z,1.58
2022-08-06T21:40:34.058Z,1.42
2022-08-06T21:43:00.556Z,2.10
2022-08-06T21:45:58.520Z,1.40
2022-08-06T21:48:15.889Z,1.10
2022-08-06T21:50:56.130Z,1.38
2022-08-06T21:53:53.086Z,1.50
2022-08-06T21:56:37.698Z,1.35
2022-08-06T21:58:58.674Z,1.48
2022-08-06T22:02:09.819Z,1.40
2022-08-06T22:04:38.182Z,1.35
2022-08-06T22:06:59.116Z,1.40
2022-08-06T22:09:38.193Z,1.27
2022-08-06T22:12:38.866Z,1.48
2022-08-06T22:14:58.610Z,1.20
2022-08-06T22:17:59.463Z,1.38
2022-08-06T22:20:21.724Z,1.35
2022-08-06T22:22:52.739Z,1.55
2022-08-06T22:25:19.509Z,1.70
2022-08-06T22:27:49.232Z,1.75
2022-08-06T22:30:33.283Z,1.52
2022-08-06T22:32:59.553Z,1.50
2022-08-06T22:35:27.584Z,1.50
2022-08-06T22:38:19.345Z,1.80
2022-08-06T22:40:41.649Z,1.98
2022-08-06T22:43:21.572Z,1.60
2022-08-06T22:46:01.716Z,1.90
2022-08-06T22:48:35.683Z,1.70
2022-08-06T22:51:03.519Z,1.65
2022-08-06T22:54:28.952Z,1.55
2022-08-06T22:56:28.272Z,1.92
2022-08-06T22:59:19.564Z,1.65
2022-08-06T23:02:06.038Z,1.52
2022-08-06T23:04:29.146Z,1.95
2022-08-06T23:06:55.652Z,1.77
2022-08-06T23:09:22.226Z,1.63
2022-08-06T23:11:59.825Z,1.52
2022-08-06T23:14:31.604Z,1.70
2022-08-06T23:16:58.621Z,1.42
2022-08-06T23:19:24.889Z,1.75
2022-08-06T23:22:00.308Z,1.58
2022-08-06T23:24:35.790Z,1.95
2022-08-06T23:27:04.131Z,1.73
2022-08-06T23:29:35.256Z,1.60
2022-08-06T23:32:17.221Z,1.90
2022-08-06T23:34:48.594Z,1.83
2022-08-06T23:37:15.959Z,2.00
2022-08-06T23:39:46.982Z,1.67
2022-08-06T23:42:29.886Z,1.80
2022-08-06T23:44:56.537Z,1.80
2022-08-06T23:47:53.803Z,1.90
2022-08-06T23:50:11.773Z,1.70
2022-08-06T23:52:41.761Z,1.75
2022-08-06T23:55:16.758Z,1.90
2022-08-06T23:57:56.848Z,1.83
